Time;durP1;ratioP1;P1;durP2;ratioP2;P2;SDS_P1;SDS_P2;PMS_P1;PMS_P2;Temp;Humidity;BMP_temperature;BMP_pressure;BME280_temperature;BME280_humidity;BME280_pressure;Samples;Min_cycle;Max_cycle;Signal;HPM_P1;HPM_P2
2023/04/05 00:00:45;;;;;;;7.22;3.22;;;3.60;75.60;;;;;;4986564;28;20049;-88
2023/04/05 00:03:11;;;;;;;10.70;3.85;;;3.50;75.40;;;;;;4976885;28;20045;-87
2023/04/05 00:05:38;;;;;;;9.65;3.42;;;3.50;76.40;;;;;;4986563;28;20077;-87
2023/04/05 00:08:17;;;;;;;10.30;3.75;;;3.40;76.50;;;;;;4977251;28;20050;-87
2023/04/05 00:10:43;;;;;;;9.43;3.67;;;3.30;76.60;;;;;;4974101;28;20156;-87
2023/04/05 00:13:08;;;;;;;11.80;3.55;;;3.20;77.10;;;;;;4993831;28;20054;-87
2023/04/05 00:15:34;;;;;;;9.02;3.53;;;3.20;77.40;;;;;;4969402;28;20046;-87
2023/04/05 00:18:02;;;;;;;9.15;3.00;;;3.20;77.50;;;;;;4973663;28;20034;-87
2023/04/05 00:20:28;;;;;;;8.07;3.35;;;3.10;77.30;;;;;;4992440;28;20519;-87
2023/04/05 00:22:53;;;;;;;10.25;3.38;;;3.00;77.50;;;;;;4975501;28;20045;-87
2023/04/05 00:25:20;;;;;;;9.07;3.47;;;3.00;77.60;;;;;;4993430;28;20041;-87
2023/04/05 00:27:46;;;;;;;10.15;3.80;;;3.00;77.70;;;;;;4989002;28;20060;-87
2023/04/05 00:30:12;;;;;;;9.43;4.18;;;2.90;78.80;;;;;;4976594;28;20407;-87
2023/04/05 00:32:37;;;;;;;10.27;4.38;;;3.00;78.50;;;;;;4975950;28;20034;-87
2023/04/05 00:35:03;;;;;;;10.77;4.40;;;2.90;79.20;;;;;;4960997;28;20038;-87
2023/04/05 00:37:29;;;;;;;9.85;3.35;;;2.90;79.30;;;;;;4975824;28;20042;-87
2023/04/05 00:39:56;;;;;;;10.57;3.88;;;2.90;80.00;;;;;;4963613;28;20036;-87
2023/04/05 00:42:22;;;;;;;10.70;3.70;;;2.90;80.90;;;;;;4997574;28;20104;-87
2023/04/05 00:44:48;;;;;;;8.30;3.40;;;3.00;80.90;;;;;;4975456;28;20035;-87
2023/04/05 00:47:13;;;;;;;12.05;4.03;;;2.90;81.10;;;;;;4993864;28;20043;-87
2023/04/05 00:49:40;;;;;;;9.05;3.40;;;2.90;81.40;;;;;;4977410;28;20045;-87
2023/04/05 00:52:05;;;;;;;8.32;3.70;;;2.90;81.90;;;;;;5028502;28;20034;-87
2023/04/05 00:54:32;;;;;;;13.05;4.18;;;2.90;81.80;;;;;;4997213;28;20045;-87
2023/04/05 00:56:58;;;;;;;10.48;3.90;;;2.90;82.60;;;;;;4974690;28;20402;-87
2023/04/05 00:59:25;;;;;;;12.32;4.32;;;2.90;82.70;;;;;;4995729;28;20383;-88
2023/04/05 01:02:07;;;;;;;9.40;3.45;;;2.80;82.80;;;;;;4996896;28;20042;-87
2023/04/05 01:04:35;;;;;;;10.47;3.93;;;2.80;83.60;;;;;;4962639;28;20569;-87
2023/04/05 01:07:22;;;;;;;9.95;3.90;;;2.70;83.50;;;;;;4961439;28;20038;-88
2023/04/05 01:09:59;;;;;;;9.95;3.65;;;2.70;83.80;;;;;;4992349;28;20046;-88
2023/04/05 01:12:31;;;;;;;7.60;3.30;;;2.70;85.80;;;;;;4993731;28;20043;-87
2023/04/05 01:14:57;;;;;;;9.38;3.65;;;2.60;85.60;;;;;;4995863;28;20046;-87
2023/04/05 01:17:26;;;;;;;8.95;3.55;;;2.50;85.80;;;;;;4976333;28;20088;-87
2023/04/05 01:20:02;;;;;;;10.02;3.28;;;2.50;86.90;;;;;;4980266;28;20418;-87
2023/04/05 01:23:05;;;;;;;8.05;3.33;;;2.40;86.50;;;;;;4988801;28;20068;-87
2023/04/05 01:26:08;;;;;;;10.40;3.63;;;2.40;89.00;;;;;;4980743;28;20137;-87
2023/04/05 01:28:56;;;;;;;;;;;2.30;90.30;;;;;;4974793;28;20475;-87
2023/04/05 01:31:36;;;;;;;10.45;3.95;;;2.30;93.50;;;;;;4980405;28;19971;-87
2023/04/05 01:34:15;;;;;;;9.88;3.60;;;2.30;89.80;;;;;;4979619;28;20053;-87
2023/04/05 01:37:06;;;;;;;10.85;4.22;;;2.30;89.40;;;;;;4996471;28;20042;-86
2023/04/05 01:39:34;;;;;;;10.45;4.40;;;2.20;91.10;;;;;;5003503;28;20057;-87
2023/04/05 01:42:00;;;;;;;9.80;4.25;;;2.20;90.20;;;;;;4973450;28;20674;-87
2023/04/05 01:44:27;;;;;;;9.55;4.03;;;2.20;90.40;;;;;;4976742;28;20046;-87
2023/04/05 01:46:52;;;;;;;11.30;4.88;;;2.20;90.70;;;;;;4964946;28;20384;-86
2023/04/05 01:49:19;;;;;;;11.70;4.20;;;2.20;90.90;;;;;;4985041;28;20574;-86
2023/04/05 01:51:44;;;;;;;9.05;3.80;;;2.30;91.30;;;;;;4960895;28;20088;-87
2023/04/05 01:54:10;;;;;;;12.02;4.45;;;2.30;91.20;;;;;;4976336;28;20042;-87
2023/04/05 01:56:36;;;;;;;11.20;4.38;;;2.20;91.00;;;;;;4961026;28;20109;-86
2023/04/05 01:59:01;;;;;;;8.48;3.42;;;2.20;90.90;;;;;;4978893;28;20073;-87
2023/04/05 02:01:27;;;;;;;9.32;3.10;;;2.20;91.00;;;;;;4979441;28;20038;-86
2023/04/05 02:03:52;;;;;;;9.57;3.45;;;2.10;90.40;;;;;;4992869;28;20046;-87
2023/04/05 02:06:18;;;;;;;11.05;4.10;;;1.90;90.70;;;;;;4941307;28;20074;-86
2023/04/05 02:08:44;;;;;;;9.75;3.28;;;1.90;91.20;;;;;;4957244;28;20122;-87
2023/04/05 02:11:10;;;;;;;10.70;4.30;;;1.80;90.80;;;;;;4986774;28;20038;-87
2023/04/05 02:13:35;;;;;;;10.65;4.03;;;1.80;91.80;;;;;;4941192;28;20093;-87
2023/04/05 02:16:01;;;;;;;10.00;3.65;;;1.80;91.70;;;;;;4964118;28;20038;-86
2023/04/05 02:18:30;;;;;;;10.60;3.65;;;1.70;92.00;;;;;;4976004;28;20099;-86
2023/04/05 02:21:07;;;;;;;10.63;3.72;;;1.70;92.50;;;;;;4979433;28;20045;-86
2023/04/05 02:23:33;;;;;;;9.43;3.65;;;1.70;93.50;;;;;;4993153;28;20038;-86
2023/04/05 02:25:59;;;;;;;10.30;4.00;;;1.60;92.70;;;;;;4978953;28;20045;-86
2023/04/05 02:28:25;;;;;;;10.65;4.25;;;1.60;92.90;;;;;;4979069;28;20052;-87
2023/04/05 02:30:51;;;;;;;12.85;4.40;;;1.60;93.00;;;;;;4966139;28;20039;-86
2023/04/05 02:33:16;;;;;;;10.88;4.35;;;1.60;92.70;;;;;;4989078;28;20057;-87
2023/04/05 02:35:42;;;;;;;9.65;3.83;;;1.60;93.10;;;;;;5001533;28;20566;-87
2023/04/05 02:38:08;;;;;;;9.45;3.78;;;1.50;93.00;;;;;;4959534;28;20128;-86
2023/04/05 02:40:34;;;;;;;10.88;4.20;;;1.50;93.10;;;;;;4975341;28;20042;-86
2023/04/05 02:43:00;;;;;;;9.88;3.65;;;1.50;94.20;;;;;;4957467;28;20059;-86
2023/04/05 02:45:26;;;;;;;9.85;3.78;;;1.50;94.30;;;;;;4940680;28;20045;-86
2023/04/05 02:47:53;;;;;;;11.93;4.10;;;1.50;94.20;;;;;;5005082;28;20042;-86
2023/04/05 02:50:19;;;;;;;13.32;4.32;;;1.50;94.60;;;;;;4975397;28;20038;-86
2023/04/05 02:52:48;;;;;;;9.77;3.78;;;1.40;94.10;;;;;;5008075;28;20043;-86
2023/04/05 02:55:13;;;;;;;10.85;4.55;;;1.40;94.50;;;;;;4975072;28;20038;-87
2023/04/05 02:57:39;;;;;;;11.80;4.25;;;1.40;94.30;;;;;;4975682;28;20038;-87
2023/04/05 03:00:07;;;;;;;10.90;3.85;;;1.40;95.70;;;;;;4955560;28;20030;-86
2023/04/05 03:02:32;;;;;;;10.50;3.80;;;1.40;95.40;;;;;;4990760;28;20407;-86
2023/04/05 03:05:01;;;;;;;13.15;4.13;;;1.30;94.90;;;;;;4979071;28;20037;-87
2023/04/05 03:07:27;;;;;;;9.88;4.07;;;1.30;95.50;;;;;;4976124;28;20038;-87
2023/04/05 03:09:52;;;;;;;9.57;3.50;;;1.30;94.70;;;;;;4994322;28;20045;-86
2023/04/05 03:12:18;;;;;;;9.43;4.18;;;1.20;94.50;;;;;;4977760;28;20113;-87
2023/04/05 03:14:44;;;;;;;8.38;3.60;;;1.20;94.90;;;;;;4991355;28;20133;-86
2023/04/05 03:17:11;;;;;;;13.73;4.95;;;1.10;94.80;;;;;;4976433;28;20073;-87
2023/04/05 03:19:37;;;;;;;10.90;3.75;;;1.10;94.90;;;;;;4958274;28;20057;-86
2023/04/05 03:22:03;;;;;;;12.00;4.38;;;1.00;94.90;;;;;;4959026;28;20061;-86
2023/04/05 03:24:29;;;;;;;10.35;4.25;;;1.00;95.40;;;;;;4992438;28;20071;-86
2023/04/05 03:26:55;;;;;;;12.80;4.90;;;1.00;95.90;;;;;;4994447;28;20062;-86
2023/04/05 03:29:20;;;;;;;11.82;4.07;;;1.00;96.10;;;;;;4994485;28;20049;-86
2023/04/05 03:31:46;;;;;;;11.18;4.03;;;1.00;96.50;;;;;;4978771;28;20045;-87
2023/04/05 03:34:12;;;;;;;12.13;4.95;;;1.00;96.90;;;;;;4991096;28;20204;-86
2023/04/05 03:36:44;;;;;;;9.70;4.15;;;1.00;97.00;;;;;;4960999;28;20420;-87
2023/04/05 03:39:13;;;;;;;11.25;4.57;;;1.00;97.90;;;;;;5004095;28;20049;-87
2023/04/05 03:41:39;;;;;;;10.68;5.10;;;1.00;98.40;;;;;;4971543;28;20495;-86
2023/04/05 03:44:06;;;;;;;11.10;5.28;;;1.00;98.40;;;;;;4989831;28;20038;-87
2023/04/05 03:46:32;;;;;;;9.90;4.55;;;1.00;98.30;;;;;;4962345;28;20125;-86
2023/04/05 03:48:58;;;;;;;14.23;6.03;;;1.00;98.80;;;;;;4988937;28;20110;-86
2023/04/05 03:51:24;;;;;;;11.57;5.13;;;1.10;98.80;;;;;;5002453;28;20050;-86
2023/04/05 03:53:50;;;;;;;13.93;5.35;;;1.10;98.60;;;;;;4975197;28;20043;-87
2023/04/05 03:56:16;;;;;;;11.98;5.35;;;1.10;98.90;;;;;;4975895;28;20074;-86
2023/04/05 03:58:42;;;;;;;11.38;4.32;;;1.00;98.50;;;;;;4976900;28;20499;-86
2023/04/05 04:01:08;;;;;;;10.27;4.32;;;1.00;99.20;;;;;;4944362;28;20053;-86
2023/04/05 04:03:36;;;;;;;11.25;3.75;;;1.00;98.40;;;;;;4955141;28;20049;-86
2023/04/05 04:06:05;;;;;;;10.65;4.78;;;0.90;98.30;;;;;;4985368;28;20380;-86
2023/04/05 04:08:31;;;;;;;10.68;4.85;;;0.80;98.30;;;;;;4993944;28;20038;-87
2023/04/05 04:10:57;;;;;;;9.88;3.92;;;0.80;98.10;;;;;;4971304;28;20085;-86
2023/04/05 04:13:23;;;;;;;8.63;3.97;;;0.70;98.00;;;;;;4943619;28;20043;-86
2023/04/05 04:15:48;;;;;;;10.90;3.63;;;0.70;97.80;;;;;;4966785;28;20044;-86
2023/04/05 04:18:14;;;;;;;10.40;3.85;;;0.70;98.10;;;;;;4965446;28;20038;-86
2023/04/05 04:20:40;;;;;;;11.77;3.90;;;0.70;99.00;;;;;;4974569;28;20047;-86
2023/04/05 04:23:08;;;;;;;7.78;3.60;;;0.60;98.40;;;;;;5003594;28;20038;-86
2023/04/05 04:25:35;;;;;;;12.75;3.83;;;0.60;98.50;;;;;;4978431;28;20050;-86
2023/04/05 04:28:02;;;;;;;10.80;4.07;;;0.60;98.50;;;;;;4981819;28;20050;-86
2023/04/05 04:30:28;;;;;;;10.25;4.57;;;0.60;99.60;;;;;;4997352;28;20058;-86
2023/04/05 04:32:53;;;;;;;12.50;5.35;;;0.60;99.40;;;;;;4981444;28;20451;-86
2023/04/05 04:35:27;;;;;;;11.32;4.05;;;0.60;99.90;;;;;;4984041;28;20046;-86
2023/04/05 04:38:03;;;;;;;9.98;4.47;;;0.50;99.90;;;;;;5007592;28;20042;-87
2023/04/05 04:40:37;;;;;;;10.48;4.13;;;0.60;99.90;;;;;;5000261;28;20495;-86
2023/04/05 04:43:18;;;;;;;10.18;4.18;;;0.60;99.90;;;;;;4994447;28;20513;-86
2023/04/05 04:45:49;;;;;;;12.23;5.47;;;0.50;99.90;;;;;;4962204;28;20051;-86
2023/04/05 04:48:17;;;;;;;11.02;5.18;;;0.50;99.90;;;;;;4991147;28;20033;-86
2023/04/05 04:50:44;;;;;;;9.85;4.80;;;0.50;99.90;;;;;;4980860;28;20392;-86
2023/04/05 04:53:11;;;;;;;12.00;4.75;;;0.50;99.90;;;;;;4996517;28;20125;-86
2023/04/05 04:55:37;;;;;;;15.60;5.75;;;0.50;99.90;;;;;;4962292;28;20042;-86
2023/04/05 04:58:08;;;;;;;12.13;5.28;;;0.60;99.90;;;;;;4993790;28;20519;-86
2023/04/05 05:00:36;;;;;;;16.15;6.60;;;0.60;99.90;;;;;;4984168;28;20120;-86
2023/04/05 05:03:02;;;;;;;12.25;5.20;;;0.60;99.90;;;;;;4977864;28;20049;-86
2023/04/05 05:05:28;;;;;;;13.80;6.38;;;0.60;99.90;;;;;;4961373;28;20042;-86
2023/04/05 05:07:53;;;;;;;14.68;7.18;;;0.70;99.90;;;;;;4974662;28;20064;-86
2023/04/05 05:10:19;;;;;;;13.48;6.35;;;0.70;99.90;;;;;;4980715;28;20036;-86
2023/04/05 05:12:47;;;;;;;14.63;5.80;;;0.70;99.90;;;;;;4971748;28;20495;-86
2023/04/05 05:15:13;;;;;;;12.98;5.10;;;0.70;99.90;;;;;;4992009;28;20051;-86
2023/04/05 05:17:39;;;;;;;15.50;7.05;;;0.70;99.90;;;;;;4993887;28;20072;-86
2023/04/05 05:20:09;;;;;;;13.32;6.35;;;0.70;99.90;;;;;;5010287;28;20136;-86
2023/04/05 05:22:36;;;;;;;11.50;5.50;;;0.70;99.90;;;;;;5011423;28;20077;-86
2023/04/05 05:25:02;;;;;;;15.23;6.40;;;0.70;99.90;;;;;;4960807;28;20050;-86
2023/04/05 05:27:28;;;;;;;12.68;6.57;;;0.70;99.90;;;;;;5005623;28;20053;-86
2023/04/05 05:29:54;;;;;;;16.02;6.70;;;0.70;99.90;;;;;;4989035;28;20121;-86
2023/04/05 05:32:21;;;;;;;14.82;7.78;;;0.70;99.90;;;;;;4998710;28;20481;-85
2023/04/05 05:34:48;;;;;;;11.82;5.97;;;0.80;99.90;;;;;;5008591;28;20043;-86
2023/04/05 05:37:15;;;;;;;11.77;4.68;;;0.80;99.90;;;;;;4967712;28;20049;-86
2023/04/05 05:39:41;;;;;;;10.93;4.68;;;0.70;99.90;;;;;;4979046;28;20046;-86
2023/04/05 05:42:06;;;;;;;12.13;5.28;;;0.70;99.90;;;;;;4990939;28;20041;-86
2023/04/05 05:44:32;;;;;;;10.43;4.30;;;0.60;99.90;;;;;;4992104;28;20042;-86
2023/04/05 05:46:57;;;;;;;10.15;3.80;;;0.60;99.90;;;;;;4994943;28;20038;-86
2023/04/05 05:49:24;;;;;;;10.20;3.90;;;0.60;99.90;;;;;;4993223;28;20056;-86
2023/04/05 05:51:51;;;;;;;9.50;3.90;;;0.50;99.90;;;;;;4979125;28;20562;-86
2023/04/05 05:54:17;;;;;;;11.48;4.75;;;0.50;99.90;;;;;;4969754;28;20031;-86
2023/04/05 05:56:42;;;;;;;10.75;4.57;;;0.50;99.90;;;;;;4988966;28;20058;-86
2023/04/05 05:59:08;;;;;;;9.15;4.55;;;0.50;99.90;;;;;;4994185;28;20136;-86
2023/04/05 06:01:41;;;;;;;10.05;4.40;;;0.50;99.90;;;;;;4976251;28;20415;-86
2023/04/05 06:04:09;;;;;;;;;;;0.50;99.90;;;;;;4979673;28;20038;-86
2023/04/05 06:06:35;;;;;;;14.52;5.05;;;0.50;99.90;;;;;;4963223;28;19968;-86
2023/04/05 06:09:01;;;;;;;10.07;4.53;;;0.50;99.90;;;;;;4976145;28;20045;-86
2023/04/05 06:11:27;;;;;;;10.07;4.60;;;0.50;99.90;;;;;;4984957;28;20030;-86
2023/04/05 06:13:55;;;;;;;11.25;5.15;;;0.60;99.90;;;;;;4994779;28;20124;-86
2023/04/05 06:16:21;;;;;;;11.65;4.90;;;0.60;99.90;;;;;;4979297;28;20050;-87
2023/04/05 06:18:47;;;;;;;11.27;4.80;;;0.70;99.90;;;;;;4985802;28;20051;-87
2023/04/05 06:21:13;;;;;;;13.80;5.05;;;0.70;99.90;;;;;;5016001;28;20041;-86
2023/04/05 06:23:40;;;;;;;12.23;5.22;;;0.70;99.90;;;;;;4987674;28;20452;-86
2023/04/05 06:26:07;;;;;;;13.15;5.50;;;0.80;99.90;;;;;;4978037;28;20531;-87
2023/04/05 06:28:32;;;;;;;10.65;5.30;;;0.90;99.90;;;;;;4971783;28;20503;-86
2023/04/05 06:30:58;;;;;;;11.15;4.75;;;0.90;99.90;;;;;;4959257;28;20041;-87
2023/04/05 06:33:25;;;;;;;13.27;6.25;;;1.00;99.90;;;;;;4991844;28;20053;-87
2023/04/05 06:35:50;;;;;;;10.93;5.43;;;1.00;99.90;;;;;;4982884;28;20135;-87
2023/04/05 06:38:16;;;;;;;13.43;5.95;;;1.10;99.90;;;;;;4988742;28;20618;-87
2023/04/05 06:40:42;;;;;;;14.43;5.38;;;1.20;99.90;;;;;;4977835;28;20088;-87
2023/04/05 06:43:09;;;;;;;14.15;6.03;;;1.30;99.90;;;;;;4989695;28;20534;-87
2023/04/05 06:45:35;;;;;;;13.00;5.55;;;1.30;99.90;;;;;;4995444;28;20085;-87
2023/04/05 06:48:01;;;;;;;10.18;4.95;;;1.40;99.90;;;;;;4976409;28;20092;-87
2023/04/05 06:50:27;;;;;;;11.68;4.95;;;1.50;99.90;;;;;;4974463;28;20046;-87
2023/04/05 06:52:52;;;;;;;12.63;6.80;;;1.60;99.90;;;;;;4965258;28;20125;-87
2023/04/05 06:55:18;;;;;;;12.57;7.15;;;1.70;99.90;;;;;;4941509;28;20043;-87
2023/04/05 06:57:44;;;;;;;14.13;6.20;;;1.80;99.90;;;;;;4977390;28;20384;-87
2023/04/05 07:00:12;;;;;;;14.80;6.95;;;1.90;99.90;;;;;;4974850;28;20062;-88
2023/04/05 07:02:38;;;;;;;15.13;6.40;;;2.00;99.90;;;;;;4991875;28;20096;-87
2023/04/05 07:05:04;;;;;;;17.02;8.27;;;2.10;99.90;;;;;;4990370;28;20050;-87
2023/04/05 07:07:37;;;;;;;16.98;8.63;;;2.30;99.90;;;;;;4978621;28;20495;-87
2023/04/05 07:10:03;;;;;;;14.45;7.20;;;2.40;99.90;;;;;;4976722;28;20038;-88
2023/04/05 07:12:29;;;;;;;14.07;8.05;;;2.50;99.90;;;;;;4971487;28;20034;-89
2023/04/05 07:14:54;;;;;;;13.13;7.65;;;2.60;99.90;;;;;;4978219;28;20088;-87
2023/04/05 07:17:20;;;;;;;17.13;9.00;;;2.80;99.90;;;;;;4975088;28;20054;-87
2023/04/05 07:19:46;;;;;;;15.05;8.07;;;2.90;99.90;;;;;;4973015;28;20148;-87
2023/04/05 07:22:12;;;;;;;15.93;9.57;;;3.00;99.90;;;;;;4977942;28;20038;-87
2023/04/05 07:24:37;;;;;;;15.18;8.32;;;3.10;99.90;;;;;;5007790;28;20081;-88
2023/04/05 07:27:03;;;;;;;14.68;7.72;;;3.20;99.90;;;;;;4976350;28;20044;-89
2023/04/05 07:29:29;;;;;;;16.52;8.98;;;3.30;99.90;;;;;;4980689;28;20113;-89
2023/04/05 07:31:54;;;;;;;16.77;8.40;;;3.40;99.90;;;;;;4958745;28;20384;-89
2023/04/05 07:34:20;;;;;;;16.35;8.88;;;3.50;99.90;;;;;;4957638;28;20511;-89
2023/04/05 07:36:46;;;;;;;17.38;8.27;;;3.60;99.90;;;;;;4974534;28;20043;-88
2023/04/05 07:39:12;;;;;;;16.77;8.07;;;3.80;99.90;;;;;;4965061;28;20045;-90
2023/04/05 07:41:37;;;;;;;13.95;7.38;;;3.90;99.90;;;;;;4979066;28;20046;-90
2023/04/05 07:44:03;;;;;;;15.35;7.10;;;4.10;99.90;;;;;;4991427;28;20038;-89
2023/04/05 07:46:29;;;;;;;13.05;7.40;;;4.20;99.90;;;;;;4980323;28;20484;-89
2023/04/05 07:48:55;;;;;;;14.13;7.47;;;4.30;98.90;;;;;;4977264;28;20042;-89
2023/04/05 07:51:21;;;;;;;11.90;6.68;;;4.50;98.50;;;;;;5010893;28;20038;-89
2023/04/05 07:53:47;;;;;;;12.95;6.30;;;4.60;97.70;;;;;;4994598;28;20429;-90
2023/04/05 07:56:14;;;;;;;13.13;6.03;;;4.70;97.20;;;;;;4991856;28;20521;-89
2023/04/05 07:58:40;;;;;;;12.32;6.07;;;4.80;97.00;;;;;;4991549;28;20130;-89
2023/04/05 08:01:07;;;;;;;12.00;6.45;;;4.90;96.80;;;;;;4989437;28;20347;-88
2023/04/05 08:03:34;;;;;;;13.05;6.57;;;5.10;95.90;;;;;;4970633;28;20051;-89
2023/04/05 08:06:20;;;;;;;12.43;6.10;;;5.20;94.90;;;;;;4989971;28;20045;-89
2023/04/05 08:08:46;;;;;;;11.07;5.97;;;5.30;94.10;;;;;;4992418;28;20053;-88
2023/04/05 08:11:12;;;;;;;12.95;5.72;;;5.40;93.80;;;;;;4988383;28;20038;-89
2023/04/05 08:13:42;;;;;;;12.90;5.40;;;5.50;93.40;;;;;;4976927;28;20034;-88
2023/04/05 08:16:09;;;;;;;10.10;5.35;;;5.70;92.90;;;;;;4980435;28;20117;-89
2023/04/05 08:18:35;;;;;;;12.68;5.70;;;5.80;92.30;;;;;;4938778;28;20496;-89
2023/04/05 08:21:00;;;;;;;14.30;5.97;;;5.90;92.00;;;;;;4993130;28;20043;-88
2023/04/05 08:23:26;;;;;;;13.68;5.85;;;6.10;91.10;;;;;;4993487;28;20050;-88
2023/04/05 08:25:52;;;;;;;13.05;5.10;;;6.20;91.00;;;;;;4975024;28;20045;-88
2023/04/05 08:28:18;;;;;;;12.95;5.38;;;6.30;90.30;;;;;;5002667;28;20495;-89
2023/04/05 08:30:45;;;;;;;10.60;4.78;;;6.40;89.30;;;;;;4976666;28;20479;-88
2023/04/05 08:33:11;;;;;;;12.07;5.15;;;6.60;88.10;;;;;;4977413;28;20053;-88
2023/04/05 08:35:38;;;;;;;11.27;4.47;;;6.70;87.00;;;;;;4957561;28;20526;-89
2023/04/05 08:38:05;;;;;;;11.02;4.75;;;6.80;85.80;;;;;;5008699;28;20088;-88
2023/04/05 08:40:42;;;;;;;15.02;5.90;;;6.80;85.20;;;;;;4958003;28;20046;-88
2023/04/05 08:43:17;;;;;;;9.93;4.18;;;7.00;83.60;;;;;;4957192;28;20396;-88
2023/04/05 08:45:48;;;;;;;10.93;4.13;;;7.10;83.40;;;;;;4956449;28;20105;-89
2023/04/05 08:48:13;;;;;;;8.05;3.60;;;7.20;82.60;;;;;;4989104;28;20050;-89
2023/04/05 08:50:39;;;;;;;8.82;3.70;;;7.30;81.80;;;;;;4993440;28;20026;-88
2023/04/05 08:53:09;;;;;;;10.05;4.20;;;7.40;80.80;;;;;;5005524;28;20137;-89
2023/04/05 08:55:35;;;;;;;8.45;3.45;;;7.50;80.30;;;;;;4956904;28;20039;-89
2023/04/05 08:58:05;;;;;;;9.07;3.60;;;7.70;79.60;;;;;;4984141;28;20046;-89
2023/04/05 09:00:32;;;;;;;9.68;3.90;;;7.80;78.70;;;;;;5005679;28;20054;-89
2023/04/05 09:03:01;;;;;;;9.88;3.40;;;7.90;78.10;;;;;;4950254;28;20026;-90
2023/04/05 09:05:28;;;;;;;12.23;3.72;;;8.00;77.70;;;;;;4963106;28;20052;-89
2023/04/05 09:07:57;;;;;;;8.88;3.45;;;8.20;76.50;;;;;;4974958;28;20077;-88
2023/04/05 09:10:23;;;;;;;9.82;3.25;;;8.30;76.00;;;;;;4980395;28;20038;-88
2023/04/05 09:12:50;;;;;;;8.95;3.10;;;8.40;76.40;;;;;;4960694;28;20121;-89
2023/04/05 09:15:16;;;;;;;10.48;3.75;;;8.50;75.30;;;;;;4995472;28;20045;-90
2023/04/05 09:17:42;;;;;;;11.10;4.15;;;8.60;74.80;;;;;;4941683;28;20512;-88
2023/04/05 09:20:08;;;;;;;7.88;3.20;;;8.70;75.00;;;;;;4975839;28;20031;-90
2023/04/05 09:22:45;;;;;;;12.10;3.83;;;8.90;74.50;;;;;;4951359;28;20412;-91
2023/04/05 09:25:11;;;;;;;8.68;2.85;;;9.00;73.50;;;;;;4973578;28;20039;-90
2023/04/05 09:27:56;;;;;;;8.55;3.10;;;9.10;73.20;;;;;;4977370;28;20519;-91
2023/04/05 09:30:22;;;;;;;7.97;2.90;;;9.20;71.70;;;;;;5012006;28;20100;-91
2023/04/05 09:32:50;;;;;;;9.70;3.13;;;9.30;72.50;;;;;;4996580;28;20037;-91
2023/04/05 09:35:18;;;;;;;7.72;2.95;;;9.40;71.50;;;;;;4977791;28;20121;-92
2023/04/05 09:37:52;;;;;;;7.55;2.95;;;9.50;70.90;;;;;;4996518;28;20049;-92
2023/04/05 09:40:18;;;;;;;7.60;3.33;;;9.50;69.00;;;;;;4972717;28;20121;-92
2023/04/05 09:42:44;;;;;;;9.65;3.42;;;9.50;69.10;;;;;;4960502;28;20046;-91
2023/04/05 09:45:10;;;;;;;10.57;3.70;;;9.50;68.90;;;;;;4992393;28;20450;-92
2023/04/05 09:47:36;;;;;;;9.27;3.15;;;9.60;69.30;;;;;;5022117;28;20042;-91
2023/04/05 09:50:18;;;;;;;8.10;3.08;;;9.70;68.90;;;;;;4979577;28;20034;-91
2023/04/05 09:52:44;;;;;;;7.88;3.00;;;9.80;67.10;;;;;;5008187;28;20120;-92
2023/04/05 09:55:11;;;;;;;6.93;3.03;;;10.00;67.90;;;;;;4996404;28;20513;-93
2023/04/05 09:57:41;;;;;;;8.70;3.05;;;9.90;67.10;;;;;;4986557;28;20046;-92
2023/04/05 10:00:18;;;;;;;9.48;3.10;;;10.10;66.80;;;;;;4940143;28;20050;-92
2023/04/05 10:02:46;;;;;;;7.85;3.03;;;10.20;66.40;;;;;;5025524;28;20053;-92
2023/04/05 10:05:14;;;;;;;9.40;3.42;;;10.40;66.50;;;;;;4995101;28;20061;-92
2023/04/05 10:07:40;;;;;;;9.65;4.00;;;10.60;65.80;;;;;;4980030;28;20038;-92
2023/04/05 10:10:08;;;;;;;7.65;3.30;;;10.70;65.50;;;;;;5008811;28;20049;-92
2023/04/05 10:12:37;;;;;;;9.10;3.25;;;10.80;65.10;;;;;;4975139;28;20043;-92
2023/04/05 10:15:04;;;;;;;7.50;3.33;;;11.00;64.90;;;;;;4990333;28;20450;-93
2023/04/05 10:17:41;;;;;;;9.52;3.47;;;11.10;64.80;;;;;;4988118;28;20041;-92
2023/04/05 10:20:24;;;;;;;8.68;3.47;;;11.20;63.90;;;;;;4977879;28;20050;-92
2023/04/05 10:23:16;;;;;;;9.80;3.23;;;11.30;62.70;;;;;;4972533;28;20128;-92
2023/04/05 10:25:50;;;;;;;9.45;3.75;;;11.40;61.30;;;;;;4994370;28;20278;-91
2023/04/05 10:28:34;;;;;;;9.18;3.47;;;11.50;61.40;;;;;;4976204;28;20030;-92
2023/04/05 10:31:25;;;;;;;9.18;3.05;;;11.70;61.30;;;;;;4979658;28;20049;-91
2023/04/05 10:34:05;;;;;;;8.70;3.58;;;11.80;61.70;;;;;;4979488;28;20034;-92
2023/04/05 10:36:56;;;;;;;9.25;3.55;;;11.90;61.00;;;;;;4995671;28;20526;-93
2023/04/05 10:39:24;;;;;;;8.63;3.85;;;12.10;60.50;;;;;;4965790;28;20520;-93
2023/04/05 10:42:14;;;;;;;8.55;3.50;;;12.10;60.80;;;;;;4956428;28;20185;-91
2023/04/05 10:44:44;;;;;;;8.43;3.28;;;12.30;60.10;;;;;;4941649;28;20051;-92
2023/04/05 10:47:16;;;;;;;8.00;3.55;;;12.30;60.00;;;;;;5006455;28;20120;-92
2023/04/05 10:49:52;;;;;;;8.85;3.60;;;12.30;60.00;;;;;;4978959;28;20073;-91
2023/04/05 10:52:19;;;;;;;8.23;3.55;;;12.40;58.80;;;;;;4970465;28;20526;-91
2023/04/05 10:54:45;;;;;;;9.32;3.33;;;12.50;59.40;;;;;;5007071;28;20042;-92
2023/04/05 10:57:12;;;;;;;8.75;3.63;;;12.60;58.00;;;;;;4978762;28;20053;-91
2023/04/05 10:59:44;;;;;;;7.53;3.22;;;12.70;58.50;;;;;;4994488;28;20050;-91
2023/04/05 11:02:10;;;;;;;10.63;3.28;;;12.80;57.50;;;;;;5012519;28;20057;-91
2023/04/05 11:04:36;;;;;;;11.38;4.93;;;12.90;56.70;;;;;;4967680;28;20046;-91
2023/04/05 11:07:12;;;;;;;10.00;3.50;;;13.10;57.30;;;;;;4975539;28;20504;-91
2023/04/05 11:09:51;;;;;;;11.13;5.65;;;13.30;57.10;;;;;;4983402;28;20562;-91
2023/04/05 11:12:17;;;;;;;9.70;3.90;;;13.40;55.10;;;;;;4991751;28;20176;-91
2023/04/05 11:14:43;;;;;;;8.57;3.78;;;13.50;55.20;;;;;;4959538;28;20062;-91
2023/04/05 11:17:26;;;;;;;9.50;3.15;;;13.60;54.90;;;;;;4994080;28;20045;-92
2023/04/05 11:20:02;;;;;;;8.68;3.75;;;13.60;53.20;;;;;;4978341;28;20052;-92
2023/04/05 11:22:29;;;;;;;7.72;3.53;;;13.50;53.60;;;;;;5010205;28;20395;-91
2023/04/05 11:25:00;;;;;;;10.27;3.92;;;13.50;54.80;;;;;;5012658;28;20127;-91
2023/04/05 11:27:39;;;;;;;10.05;4.13;;;13.70;54.90;;;;;;4994506;28;20042;-91
2023/04/05 11:30:06;;;;;;;10.50;4.07;;;13.90;54.80;;;;;;4977448;28;20062;-91
2023/04/05 11:32:41;;;;;;;10.43;4.53;;;14.10;55.00;;;;;;4991851;28;20128;-91
2023/04/05 11:35:23;;;;;;;10.10;4.80;;;14.20;53.50;;;;;;4969550;28;20037;-92
2023/04/05 11:37:56;;;;;;;9.43;3.57;;;14.30;51.20;;;;;;4994273;28;20050;-91
2023/04/05 11:40:28;;;;;;;8.88;3.15;;;14.20;52.30;;;;;;5007290;28;20038;-91
2023/04/05 11:43:06;;;;;;;7.60;3.40;;;14.30;52.00;;;;;;4974975;28;20072;-91
2023/04/05 11:45:33;;;;;;;8.55;4.53;;;14.40;51.40;;;;;;4993742;28;20522;-90
2023/04/05 11:48:07;;;;;;;9.43;4.55;;;14.60;50.60;;;;;;4992911;28;20126;-91
2023/04/05 11:50:35;;;;;;;8.93;4.57;;;14.80;49.10;;;;;;5011191;28;20488;-92
2023/04/05 11:53:09;;;;;;;10.57;3.75;;;14.90;49.50;;;;;;4977667;28;20038;-91
2023/04/05 11:55:35;;;;;;;8.35;3.03;;;15.00;50.70;;;;;;5011776;28;20042;-92
2023/04/05 11:58:01;;;;;;;9.23;4.25;;;15.20;51.20;;;;;;4977669;28;20128;-92
2023/04/05 12:00:27;;;;;;;8.25;4.05;;;15.20;50.00;;;;;;4994139;28;20559;-92
2023/04/05 12:02:56;;;;;;;8.88;3.95;;;15.20;49.20;;;;;;4987990;28;20197;-93
2023/04/05 12:05:21;;;;;;;8.60;4.03;;;15.40;49.60;;;;;;4973645;28;20743;-92
2023/04/05 12:07:53;;;;;;;9.00;4.45;;;15.60;48.40;;;;;;4974661;28;20129;-92
2023/04/05 12:10:20;;;;;;;8.45;3.65;;;15.80;47.00;;;;;;5002837;28;20053;-92
2023/04/05 12:12:47;;;;;;;10.15;4.32;;;15.80;48.60;;;;;;4994384;28;20049;-92
2023/04/05 12:15:16;;;;;;;8.90;4.20;;;16.00;47.60;;;;;;4969562;28;20038;-91
2023/04/05 12:17:50;;;;;;;8.75;3.97;;;16.10;47.00;;;;;;4972113;28;20070;-91
2023/04/05 12:20:18;;;;;;;8.10;4.25;;;16.30;45.20;;;;;;4987177;28;20050;-91
2023/04/05 12:22:47;;;;;;;9.35;3.65;;;16.20;44.30;;;;;;4969848;28;20057;-91
2023/04/05 12:25:14;;;;;;;7.65;4.03;;;16.40;45.10;;;;;;5011618;28;20104;-91
2023/04/05 12:27:40;;;;;;;7.50;3.50;;;16.40;43.70;;;;;;5010455;28;20049;-91
2023/04/05 12:30:15;;;;;;;9.32;3.22;;;16.30;44.00;;;;;;5011544;28;20033;-91
2023/04/05 12:32:43;;;;;;;8.45;3.90;;;16.50;45.30;;;;;;4969715;28;20661;-91
2023/04/05 12:35:14;;;;;;;7.68;3.90;;;16.70;44.20;;;;;;4981829;28;20085;-91
2023/04/05 12:37:40;;;;;;;9.38;4.00;;;16.60;43.70;;;;;;4997442;28;20050;-91
2023/04/05 12:40:06;;;;;;;8.68;4.03;;;16.60;43.80;;;;;;4997593;28;20406;-90
2023/04/05 12:42:36;;;;;;;7.90;3.67;;;16.80;44.00;;;;;;4981058;28;20034;-91
2023/04/05 12:45:11;;;;;;;8.55;3.75;;;17.10;44.70;;;;;;4997294;28;20510;-91
2023/04/05 12:47:48;;;;;;;9.80;3.78;;;17.20;43.50;;;;;;4997843;28;20042;-91
2023/04/05 12:50:15;;;;;;;8.20;3.50;;;17.50;42.90;;;;;;4980963;28;20511;-91
2023/04/05 12:53:03;;;;;;;7.95;3.70;;;17.50;42.50;;;;;;4966103;28;20050;-91
2023/04/05 12:55:29;;;;;;;8.77;4.32;;;17.80;43.20;;;;;;4977908;28;20046;-91
2023/04/05 12:57:58;;;;;;;9.73;4.05;;;17.90;42.40;;;;;;4990432;28;20057;-91